Terminal Aerodrome Forecast
Issued by NWS Columbia, SC

Home | Current Version | Previous Version | Text Only | Print | Product List | Glossary On
Versions: 1 2 3 4 5 6 7 8 9 10 11 12 13 14 15 16 17 18 19 20 21 22 23 24 25 26 27
000
FTUS42 KCAE 191700
TAFCAE
TAF
KCAE 191738Z 1918/2018 03012G22KT 6SM -RA BR SCT009 OVC012
      TEMPO 1918/1922 3SM -DZ BR BKN007
     FM200300 01012G21KT 5SM -DZ OVC007
     FM201300 04016G22KT P6SM BKN020=

USA.gov is the U.S. government's official web portal to all federal, state and local government web resources and services.